Portada
METAR-TAF:

METAR-TAF

Aeroports :

Rennes, França

latitud: 48-04N, longitud: 001-44W, altitud: 37 m

Observació

L'informe es va fer fa 32 minuts, a les 20:00 UTC
Vent 7 kt del Est/Nord-Est
Temperatura 21°C
Humitat 30%
Pressió 1019 hPa
Visibilitat 10 km o més
sense núvols per sota de 1500 mi sense presència de cumulonimbus.

METAR: LFRN 292000Z AUTO 06007KT CAVOK 21/03 Q1019 NOSIG

Hora: 22:32 (20:32 UTC)

Pronòstic

L'informe es va fer fa 3 hores i 32 minuts, a les 17:00 UTC
Pronòstic vàlid del 29 a les 18 UTC al 30 a les 18 UTC
Vent 10 kt del Est/Nord-Est
Visibilitat 10 km o més
sense núvols per sota de 1500 mi sense presència de cumulonimbus.

TAF: LFRN 291700Z 2918/3018 07010KT CAVOK

Observacions i pronòstics meteorològics de més de 4000 aeroports (METAR i TAF).

Les estacions disponibles són els punts grocs i vermells al mapa.

Posi el ratolí al punt desitjat per veure el nom de l'estació.

Feu clic per veure les observacions i els pronòstics meteorològics.

Per canviar el mapa: feu clic els botons verds amb una creu de color negre per apropar; al botó verd amb un guió per allunyar la imatge; o en les fletxes verdes per a mapes adjacents.


METAR-TAF: